Klin, Russia
Current Conditions -  °F | °C
As of 11:00 PM on Sunday 21 Dec 2014 (Local Time) from UUEE Reporting Station
Overcast Overcast  
Wind Chill: 24°   Ceiling: 4700
Heat Index: 34°   Visibility: 6mi
Dew Point: 28°   Wind: 13mph
Humidity: 81%   Direction: 210°SSW
Pressure: 29.44"   Gusts: NA
Location:  56.34°N, 36.7°E
Report Text: UUEE 212000Z 21006MPS 9999 OVC047 01/M02 Q0997 7571014525710145 NOSIG
Loading
Personal Weather Stations






























Interactive Weather Map New forecast layout! Learn more

10-Day Weather Forecast

Advertisements
Track Severe Weather on mobile